createdAt,value
2022-09-14T00:00:31.853Z,22.72
2022-09-14T00:01:32.024Z,22.74
2022-09-14T00:02:31.996Z,22.72
2022-09-14T00:03:31.898Z,22.72
2022-09-14T00:04:31.906Z,22.69
2022-09-14T00:05:31.926Z,22.70
2022-09-14T00:06:31.982Z,22.67
2022-09-14T00:07:31.959Z,22.69
2022-09-14T00:08:31.950Z,22.67
2022-09-14T00:09:31.925Z,22.69
2022-09-14T00:10:31.951Z,22.69
2022-09-14T00:11:32.001Z,22.70
2022-09-14T00:12:31.976Z,22.70
2022-09-14T00:13:32.010Z,22.66
2022-09-14T00:14:32.027Z,22.64
2022-09-14T00:15:32.061Z,22.64
2022-09-14T00:16:32.152Z,22.64
2022-09-14T00:17:32.072Z,22.63
2022-09-14T00:18:32.100Z,22.61
2022-09-14T00:19:32.133Z,22.60
2022-09-14T00:20:32.160Z,22.57
2022-09-14T00:21:32.199Z,22.56
2022-09-14T00:22:32.198Z,22.54
2022-09-14T00:23:32.196Z,22.54
2022-09-14T00:24:32.218Z,22.56
2022-09-14T00:25:32.245Z,22.54
2022-09-14T00:26:32.261Z,22.57
2022-09-14T00:27:32.290Z,22.59
2022-09-14T00:28:32.317Z,22.60
2022-09-14T00:29:32.349Z,22.60
2022-09-14T00:30:32.339Z,22.61
2022-09-14T00:31:32.387Z,22.61
2022-09-14T00:32:32.372Z,22.61
2022-09-14T00:33:32.388Z,22.64
2022-09-14T00:34:32.430Z,22.63
2022-09-14T00:35:32.449Z,22.63
2022-09-14T00:36:32.459Z,22.63
2022-09-14T00:37:32.442Z,22.61
2022-09-14T00:38:32.506Z,22.64
2022-09-14T00:39:32.507Z,22.64
2022-09-14T00:40:32.525Z,22.63
2022-09-14T00:41:32.539Z,22.64
2022-09-14T00:42:32.542Z,22.63
2022-09-14T00:43:32.519Z,22.63
2022-09-14T00:44:32.543Z,22.61
2022-09-14T00:45:32.606Z,22.63
2022-09-14T00:46:32.599Z,22.61
2022-09-14T00:47:32.581Z,22.61
2022-09-14T00:48:32.594Z,22.61
2022-09-14T00:49:32.605Z,22.63
2022-09-14T00:50:32.625Z,22.63
2022-09-14T00:51:32.656Z,22.63
2022-09-14T00:52:32.640Z,22.63
2022-09-14T00:53:32.667Z,22.61
2022-09-14T00:54:32.775Z,22.63
2022-09-14T00:55:32.679Z,22.63
2022-09-14T00:56:32.711Z,22.63
2022-09-14T00:57:32.752Z,22.63
2022-09-14T00:58:32.747Z,22.63
2022-09-14T00:59:32.722Z,22.63
2022-09-14T01:00:32.767Z,22.63
2022-09-14T01:01:32.939Z,22.61
2022-09-14T01:02:32.872Z,22.64
2022-09-14T01:03:32.773Z,22.64
2022-09-14T01:04:32.800Z,22.60
2022-09-14T01:05:32.820Z,22.61
2022-09-14T01:06:32.862Z,22.63
2022-09-14T01:07:32.881Z,22.63
2022-09-14T01:08:32.902Z,22.63
2022-09-14T01:09:32.932Z,22.63
2022-09-14T01:10:33.059Z,22.61
2022-09-14T01:11:32.969Z,22.61
2022-09-14T01:12:32.993Z,22.61
2022-09-14T01:13:32.974Z,22.63
2022-09-14T01:14:33.009Z,22.61
2022-09-14T01:15:33.032Z,22.63
2022-09-14T01:16:33.098Z,22.63
2022-09-14T01:17:33.054Z,22.60
2022-09-14T01:18:33.040Z,22.61
2022-09-14T01:19:33.071Z,22.60
2022-09-14T01:20:33.103Z,22.60
2022-09-14T01:21:33.120Z,22.57
2022-09-14T01:22:33.154Z,22.56
2022-09-14T01:23:33.204Z,22.54
2022-09-14T01:24:33.189Z,22.54
2022-09-14T01:25:33.215Z,22.54
2022-09-14T01:26:33.258Z,22.56
2022-09-14T01:27:33.268Z,22.57
2022-09-14T01:28:33.288Z,22.57
2022-09-14T01:29:33.307Z,22.57
2022-09-14T01:30:33.326Z,22.59
2022-09-14T01:31:33.399Z,22.59
2022-09-14T01:32:33.358Z,22.59
2022-09-14T01:33:33.399Z,22.57
2022-09-14T01:34:33.384Z,22.57
2022-09-14T01:35:33.372Z,22.60
2022-09-14T01:36:33.397Z,22.60
2022-09-14T01:37:33.416Z,22.60
2022-09-14T01:38:33.453Z,22.59
2022-09-14T01:39:33.482Z,22.57
2022-09-14T01:40:33.625Z,22.59
2022-09-14T01:41:33.515Z,22.59
2022-09-14T01:42:33.559Z,22.59
2022-09-14T01:43:36.662Z,22.59
2022-09-14T01:44:33.582Z,22.57
2022-09-14T01:45:33.618Z,22.57
2022-09-14T01:46:33.590Z,22.59
2022-09-14T01:47:33.620Z,22.59
2022-09-14T01:48:33.654Z,22.59
2022-09-14T01:49:33.697Z,22.60
2022-09-14T01:50:33.664Z,22.60
2022-09-14T01:51:33.689Z,22.59
2022-09-14T01:52:33.717Z,22.56
2022-09-14T01:53:33.739Z,22.57
2022-09-14T01:54:33.800Z,22.56
2022-09-14T01:55:33.774Z,22.56
2022-09-14T01:56:33.798Z,22.54
2022-09-14T01:57:33.815Z,22.56
2022-09-14T01:58:33.883Z,22.54
2022-09-14T01:59:33.841Z,22.56
2022-09-14T02:00:33.994Z,22.57
2022-09-14T02:01:33.881Z,22.56
2022-09-14T02:02:33.981Z,22.56
2022-09-14T02:03:33.896Z,22.56
2022-09-14T02:04:33.925Z,22.56
2022-09-14T02:05:33.952Z,22.57
2022-09-14T02:06:34.003Z,22.56
2022-09-14T02:07:34.007Z,22.56
2022-09-14T02:08:34.042Z,22.56
2022-09-14T02:09:34.015Z,22.57
2022-09-14T02:10:34.043Z,22.56
2022-09-14T02:11:34.060Z,22.54
2022-09-14T02:12:34.114Z,22.54
2022-09-14T02:13:34.133Z,22.54
2022-09-14T02:14:34.145Z,22.54
2022-09-14T02:15:34.135Z,22.57
2022-09-14T02:16:34.299Z,22.56
2022-09-14T02:17:34.203Z,22.54
2022-09-14T02:18:34.246Z,22.56
2022-09-14T02:19:34.207Z,22.54
2022-09-14T02:20:34.238Z,22.56
2022-09-14T02:21:34.269Z,22.56
2022-09-14T02:22:34.294Z,22.56
2022-09-14T02:23:34.338Z,22.54
2022-09-14T02:24:34.313Z,22.54
2022-09-14T02:25:34.347Z,22.56
2022-09-14T02:26:34.340Z,22.56
2022-09-14T02:27:34.359Z,22.54
2022-09-14T02:28:34.396Z,22.51
2022-09-14T02:29:34.373Z,22.52
2022-09-14T02:30:34.540Z,22.52
2022-09-14T02:31:34.481Z,22.51
2022-09-14T02:32:34.420Z,22.51
2022-09-14T02:33:34.445Z,22.52
2022-09-14T02:34:34.493Z,22.51
2022-09-14T02:35:34.463Z,22.52
2022-09-14T02:36:34.475Z,22.52
2022-09-14T02:37:34.505Z,22.52
2022-09-14T02:38:34.534Z,22.54
2022-09-14T02:39:34.594Z,22.52
2022-09-14T02:40:34.562Z,22.52
2022-09-14T02:41:34.588Z,22.52
2022-09-14T02:42:34.611Z,22.52
2022-09-14T02:43:34.632Z,22.54
2022-09-14T02:44:34.679Z,22.52
2022-09-14T02:45:34.686Z,22.54
2022-09-14T02:46:34.812Z,22.52
2022-09-14T02:47:34.679Z,22.54
2022-09-14T02:48:34.717Z,22.54
2022-09-14T02:49:34.688Z,22.54
2022-09-14T02:50:34.733Z,22.54
2022-09-14T02:51:34.748Z,22.52
2022-09-14T02:52:34.739Z,22.52
2022-09-14T02:53:34.752Z,22.54
2022-09-14T02:54:34.777Z,22.52
2022-09-14T02:55:34.798Z,22.52
2022-09-14T02:56:34.856Z,22.52
2022-09-14T02:57:34.842Z,22.54
2022-09-14T02:58:34.838Z,22.52
2022-09-14T02:59:34.858Z,22.46
2022-09-14T03:00:34.898Z,22.44
2022-09-14T03:01:34.909Z,22.44
2022-09-14T03:02:35.025Z,22.46
2022-09-14T03:03:35.833Z,22.48
2022-09-14T03:04:34.894Z,22.46
2022-09-14T03:05:34.884Z,22.49
2022-09-14T03:06:34.908Z,22.49
2022-09-14T03:07:34.882Z,22.49
2022-09-14T03:08:34.915Z,22.51
2022-09-14T03:09:34.927Z,22.51
2022-09-14T03:10:34.926Z,22.49
2022-09-14T03:11:34.975Z,22.49
2022-09-14T03:12:34.963Z,22.49
2022-09-14T03:13:35.005Z,22.49
2022-09-14T03:14:35.006Z,22.48
2022-09-14T03:15:35.013Z,22.46
2022-09-14T03:16:35.144Z,22.48
2022-09-14T03:17:35.044Z,22.46
2022-09-14T03:18:35.190Z,22.46
2022-09-14T03:19:35.097Z,22.48
2022-09-14T03:20:35.131Z,22.48
2022-09-14T03:21:35.170Z,22.48
2022-09-14T03:22:35.170Z,22.49
2022-09-14T03:23:35.180Z,22.48
2022-09-14T03:24:35.180Z,22.48
2022-09-14T03:25:35.171Z,22.46
2022-09-14T03:26:35.210Z,22.46
2022-09-14T03:27:35.202Z,22.48
2022-09-14T03:28:35.183Z,22.48
2022-09-14T03:29:35.217Z,22.48
2022-09-14T03:30:35.220Z,22.46
2022-09-14T03:31:35.297Z,22.48
2022-09-14T03:32:35.242Z,22.48
2022-09-14T03:33:35.222Z,22.46
2022-09-14T03:34:35.272Z,22.45
2022-09-14T03:35:35.298Z,22.46
2022-09-14T03:36:35.313Z,22.48
2022-09-14T03:37:35.386Z,22.48
2022-09-14T03:38:35.353Z,22.46
2022-09-14T03:39:35.385Z,22.46
2022-09-14T03:40:35.574Z,22.48
2022-09-14T03:41:35.440Z,22.48
2022-09-14T03:42:35.422Z,22.48
2022-09-14T03:43:35.419Z,22.48
2022-09-14T03:44:35.436Z,22.46
2022-09-14T03:45:35.484Z,22.48
2022-09-14T03:46:35.611Z,22.46
2022-09-14T03:47:35.507Z,22.46
2022-09-14T03:48:35.519Z,22.46
2022-09-14T03:49:35.558Z,22.45
2022-09-14T03:50:35.598Z,22.45
2022-09-14T03:51:35.627Z,22.48
2022-09-14T03:52:35.630Z,22.46
2022-09-14T03:53:35.664Z,22.45
2022-09-14T03:54:35.690Z,22.45
2022-09-14T03:55:35.713Z,22.45
2022-09-14T03:56:35.752Z,22.46
2022-09-14T03:57:35.730Z,22.45
2022-09-14T03:58:35.791Z,22.45
2022-09-14T03:59:37.643Z,22.46
2022-09-14T04:00:35.800Z,22.46
2022-09-14T04:01:35.875Z,22.45
2022-09-14T04:02:35.920Z,22.45
2022-09-14T04:03:35.832Z,22.44
2022-09-14T04:04:35.824Z,22.45
2022-09-14T04:05:35.865Z,22.45
2022-09-14T04:06:35.907Z,22.44
2022-09-14T04:07:35.865Z,22.44
2022-09-14T04:08:35.898Z,22.45
2022-09-14T04:09:35.924Z,22.44
2022-09-14T04:10:35.953Z,22.44
2022-09-14T04:11:36.006Z,22.44
2022-09-14T04:12:35.989Z,22.45
2022-09-14T04:13:36.019Z,22.45
2022-09-14T04:14:36.039Z,22.44
2022-09-14T04:15:36.072Z,22.44
2022-09-14T04:16:36.197Z,22.44
2022-09-14T04:17:36.122Z,22.44
2022-09-14T04:18:36.142Z,22.42
2022-09-14T04:19:36.162Z,22.44
2022-09-14T04:20:36.187Z,22.42
2022-09-14T04:21:36.260Z,22.44
2022-09-14T04:22:36.361Z,22.44
2022-09-14T04:23:51.377Z,22.41
2022-09-14T04:24:36.258Z,22.41
2022-09-14T04:25:36.276Z,22.38
2022-09-14T04:26:36.327Z,22.38
2022-09-14T04:27:36.323Z,22.39
2022-09-14T04:28:36.313Z,22.39
2022-09-14T04:29:36.310Z,22.39
2022-09-14T04:30:36.327Z,22.36
2022-09-14T04:31:36.452Z,22.36
2022-09-14T04:32:36.386Z,22.38
2022-09-14T04:33:36.381Z,22.39
2022-09-14T04:34:36.366Z,22.41
2022-09-14T04:35:36.396Z,22.41
2022-09-14T04:36:36.423Z,22.41
2022-09-14T04:37:36.449Z,22.41
2022-09-14T04:38:36.588Z,22.41
2022-09-14T04:39:36.510Z,22.42
2022-09-14T04:40:36.541Z,22.42
2022-09-14T04:41:36.517Z,22.41
2022-09-14T04:42:36.555Z,22.41
2022-09-14T04:43:36.594Z,22.42
2022-09-14T04:44:36.592Z,22.41
2022-09-14T04:45:36.594Z,22.42
2022-09-14T04:46:36.705Z,22.41
2022-09-14T04:47:36.626Z,22.41
2022-09-14T04:48:36.666Z,22.42
2022-09-14T04:49:36.664Z,22.41
2022-09-14T04:50:36.677Z,22.39
2022-09-14T04:51:36.708Z,22.39
2022-09-14T04:52:36.725Z,22.38
2022-09-14T04:53:36.768Z,22.39
2022-09-14T04:54:36.793Z,22.39
2022-09-14T04:55:36.768Z,22.39
2022-09-14T04:56:36.778Z,22.39
2022-09-14T04:57:36.817Z,22.39
2022-09-14T04:58:37.943Z,22.39
2022-09-14T04:59:36.850Z,22.39
2022-09-14T05:02:02.851Z,22.39
2022-09-14T05:03:02.847Z,22.39
2022-09-14T05:04:02.799Z,22.39
2022-09-14T05:05:02.774Z,22.39
2022-09-14T05:06:02.801Z,22.38
2022-09-14T05:07:02.839Z,22.39
2022-09-14T05:08:02.846Z,22.38
2022-09-14T05:09:02.895Z,22.39
2022-09-14T05:10:02.926Z,22.38
2022-09-14T05:11:02.922Z,22.38
2022-09-14T05:12:02.961Z,22.39
2022-09-14T05:13:02.919Z,22.38
2022-09-14T05:14:02.925Z,22.39
2022-09-14T05:15:02.957Z,22.39
2022-09-14T05:16:03.036Z,22.39
2022-09-14T05:17:02.980Z,22.39
2022-09-14T05:18:02.927Z,22.38
2022-09-14T05:19:02.954Z,22.39
2022-09-14T05:20:02.969Z,22.39
2022-09-14T05:21:07.604Z,22.38
2022-09-14T05:22:03.016Z,22.36
2022-09-14T05:23:02.989Z,22.38
2022-09-14T05:24:02.991Z,22.36
2022-09-14T05:25:03.051Z,22.36
2022-09-14T05:26:03.108Z,22.38
2022-09-14T05:27:03.015Z,22.36
2022-09-14T05:28:03.055Z,22.36
2022-09-14T05:29:03.064Z,22.35
2022-09-14T05:30:03.099Z,22.35
2022-09-14T05:31:03.181Z,22.33
2022-09-14T05:32:03.139Z,22.31
2022-09-14T05:33:03.152Z,22.31
2022-09-14T05:34:03.186Z,22.31
2022-09-14T05:35:03.184Z,22.31
2022-09-14T05:36:03.223Z,22.29
2022-09-14T05:37:03.348Z,22.29
2022-09-14T05:38:03.240Z,22.33
2022-09-14T05:39:03.207Z,22.33
2022-09-14T05:40:03.261Z,22.33
2022-09-14T05:41:03.213Z,22.33
2022-09-14T05:42:03.283Z,22.33
2022-09-14T05:43:03.252Z,22.31
2022-09-14T05:44:03.267Z,22.30
2022-09-14T05:45:03.289Z,22.27
2022-09-14T05:46:03.328Z,22.29
2022-09-14T05:47:03.314Z,22.29
2022-09-14T05:48:03.292Z,22.30
2022-09-14T05:49:03.374Z,22.30
2022-09-14T05:50:03.336Z,22.30
2022-09-14T05:51:03.390Z,22.31
2022-09-14T05:52:03.377Z,22.33
2022-09-14T05:53:03.390Z,22.33
2022-09-14T05:54:03.410Z,22.33
2022-09-14T05:55:03.403Z,22.31
2022-09-14T05:56:03.451Z,22.30
2022-09-14T05:57:03.605Z,22.29
2022-09-14T05:58:03.654Z,22.29
2022-09-14T05:59:03.504Z,22.29
2022-09-14T06:00:03.509Z,22.30
2022-09-14T06:01:03.548Z,22.27
2022-09-14T06:02:03.644Z,22.21
2022-09-14T06:03:03.575Z,22.23
2022-09-14T06:04:03.592Z,22.17
2022-09-14T06:05:03.628Z,22.15
2022-09-14T06:06:03.596Z,22.17
2022-09-14T06:07:17.883Z,22.20
2022-09-14T06:08:03.615Z,22.21
2022-09-14T06:09:03.581Z,22.21
2022-09-14T06:10:04.098Z,22.26
2022-09-14T06:11:03.729Z,22.26
2022-09-14T06:12:03.943Z,22.29
2022-09-14T06:13:04.005Z,22.24
2022-09-14T06:14:03.667Z,22.24
2022-09-14T06:15:03.735Z,22.26
2022-09-14T06:16:03.641Z,22.31
2022-09-14T06:17:03.692Z,22.31
2022-09-14T06:18:03.701Z,22.35
2022-09-14T06:19:03.723Z,22.36
2022-09-14T06:20:04.946Z,22.39
2022-09-14T06:21:03.734Z,22.41
2022-09-14T06:22:03.769Z,22.41
2022-09-14T06:23:03.786Z,22.44
2022-09-14T06:24:03.823Z,22.44
2022-09-14T06:25:03.834Z,22.44
2022-09-14T06:26:03.841Z,22.45
2022-09-14T06:27:03.883Z,22.45
2022-09-14T06:28:03.855Z,22.46
2022-09-14T06:29:03.875Z,22.51
2022-09-14T06:30:03.928Z,22.51
2022-09-14T06:31:03.924Z,22.52
2022-09-14T06:32:03.956Z,22.52
2022-09-14T06:33:03.928Z,22.54
2022-09-14T06:34:03.967Z,22.54
2022-09-14T06:35:03.985Z,22.54
2022-09-14T06:36:04.013Z,22.54
2022-09-14T06:37:04.065Z,22.52
2022-09-14T06:38:04.063Z,22.51
2022-09-14T06:39:04.091Z,22.51
2022-09-14T06:40:04.231Z,22.49
2022-09-14T06:41:04.142Z,22.46
2022-09-14T06:42:04.091Z,22.45
2022-09-14T06:43:04.116Z,22.46
2022-09-14T06:44:04.157Z,22.45
2022-09-14T06:45:04.217Z,22.45
2022-09-14T06:46:04.308Z,22.44
2022-09-14T06:47:04.208Z,22.44
2022-09-14T06:48:04.230Z,22.46
2022-09-14T06:49:04.260Z,22.46
2022-09-14T06:50:04.230Z,22.46
2022-09-14T06:51:04.309Z,22.46
2022-09-14T06:52:04.311Z,22.46
2022-09-14T06:53:04.378Z,22.45
2022-09-14T06:54:04.339Z,22.46
2022-09-14T06:55:04.331Z,22.45
2022-09-14T06:56:04.409Z,22.44
2022-09-14T06:57:04.406Z,22.45
2022-09-14T06:58:04.517Z,22.46
2022-09-14T06:59:04.487Z,22.46
2022-09-14T07:00:04.392Z,22.48
2022-09-14T07:01:04.417Z,22.46
2022-09-14T07:02:04.534Z,22.45
2022-09-14T07:03:04.534Z,22.46
2022-09-14T07:04:04.442Z,22.46
2022-09-14T07:05:04.417Z,22.45
2022-09-14T07:06:04.449Z,22.45
2022-09-14T07:07:04.456Z,22.42
2022-09-14T07:08:06.988Z,22.45
2022-09-14T07:09:04.516Z,22.44
2022-09-14T07:10:04.524Z,22.45
2022-09-14T07:11:04.514Z,22.45
2022-09-14T07:12:05.547Z,22.45
2022-09-14T07:13:04.562Z,22.46
2022-09-14T07:14:04.546Z,22.46
2022-09-14T07:15:04.574Z,22.46
2022-09-14T07:16:04.629Z,22.48
2022-09-14T07:17:04.584Z,22.51
2022-09-14T07:18:04.707Z,22.51
2022-09-14T07:19:04.647Z,22.52
2022-09-14T07:20:04.627Z,22.54
2022-09-14T07:21:05.753Z,22.56
2022-09-14T07:22:04.645Z,22.57
2022-09-14T07:23:04.642Z,22.57
2022-09-14T07:24:04.655Z,22.59
2022-09-14T07:25:04.667Z,22.57
2022-09-14T07:26:04.644Z,22.57
2022-09-14T07:27:04.678Z,22.57
2022-09-14T07:28:04.725Z,22.56
2022-09-14T07:29:04.742Z,22.57
2022-09-14T07:30:04.780Z,22.56
2022-09-14T07:31:04.886Z,22.57
2022-09-14T07:32:04.803Z,22.56
2022-09-14T07:33:04.806Z,22.54
2022-09-14T07:34:04.863Z,22.54
2022-09-14T07:35:04.840Z,22.56
2022-09-14T07:36:04.886Z,22.57
2022-09-14T07:37:04.874Z,22.54
2022-09-14T07:38:04.877Z,22.57
2022-09-14T07:39:05.311Z,22.59
2022-09-14T07:40:04.996Z,22.59
2022-09-14T07:41:04.901Z,22.59
2022-09-14T07:42:04.923Z,22.60
2022-09-14T07:43:04.941Z,22.59
2022-09-14T07:44:04.932Z,22.61
2022-09-14T07:45:04.919Z,22.61
2022-09-14T07:46:05.003Z,22.60
2022-09-14T07:47:04.958Z,22.61
2022-09-14T07:48:04.980Z,22.63
2022-09-14T07:49:05.014Z,22.61
2022-09-14T07:50:05.097Z,22.63
2022-09-14T07:51:05.023Z,22.63
2022-09-14T07:52:04.997Z,22.64
2022-09-14T07:53:05.045Z,22.63
2022-09-14T07:54:05.136Z,22.64
2022-09-14T07:55:05.086Z,22.64
2022-09-14T07:56:05.044Z,22.66
2022-09-14T07:57:05.048Z,22.67
2022-09-14T07:58:05.067Z,22.66
2022-09-14T07:59:34.497Z,22.69
2022-09-14T08:00:05.149Z,22.70
2022-09-14T08:01:05.161Z,22.74
2022-09-14T08:02:05.312Z,22.69
2022-09-14T08:03:05.149Z,22.69
2022-09-14T08:04:05.692Z,22.69
2022-09-14T08:05:05.149Z,22.74
2022-09-14T08:06:05.239Z,22.75
2022-09-14T08:07:05.154Z,22.75
2022-09-14T08:08:05.234Z,22.76
2022-09-14T08:09:05.162Z,22.78
2022-09-14T08:10:05.203Z,22.78
2022-09-14T08:11:05.250Z,22.79
2022-09-14T08:12:05.230Z,22.79
2022-09-14T08:13:05.245Z,22.79
2022-09-14T08:14:05.264Z,22.79
2022-09-14T08:15:05.336Z,22.81
2022-09-14T08:16:05.389Z,22.81
2022-09-14T08:17:05.315Z,22.81
2022-09-14T08:18:05.314Z,22.82
2022-09-14T08:19:05.370Z,22.82
2022-09-14T08:20:05.359Z,22.82
2022-09-14T08:21:05.314Z,22.85
2022-09-14T08:22:05.468Z,22.85
2022-09-14T08:23:05.329Z,22.86
2022-09-14T08:24:05.343Z,22.85
2022-09-14T08:25:05.378Z,22.86
2022-09-14T08:26:05.342Z,22.88
2022-09-14T08:27:05.343Z,22.91
2022-09-14T08:28:05.387Z,22.89
2022-09-14T08:29:05.380Z,22.89
2022-09-14T08:30:05.509Z,22.86
2022-09-14T08:31:05.423Z,22.79
2022-09-14T08:32:05.518Z,22.76
2022-09-14T08:33:05.405Z,22.79
2022-09-14T08:34:05.449Z,22.79
2022-09-14T08:35:05.455Z,22.74
2022-09-14T08:36:05.438Z,22.70
2022-09-14T08:37:05.454Z,22.75
2022-09-14T08:38:05.578Z,22.81
2022-09-14T08:39:05.559Z,22.86
2022-09-14T08:40:05.567Z,22.91
2022-09-14T08:41:05.599Z,22.99
2022-09-14T08:42:05.520Z,23.03
2022-09-14T08:43:05.473Z,23.11
2022-09-14T08:44:05.490Z,23.18
2022-09-14T08:45:09.535Z,23.18
2022-09-14T08:46:05.606Z,23.16
2022-09-14T08:47:05.512Z,23.07
2022-09-14T08:48:05.475Z,23.09
2022-09-14T08:49:05.496Z,23.15
2022-09-14T08:50:05.498Z,23.15
2022-09-14T08:51:05.525Z,23.11
2022-09-14T08:52:05.564Z,23.12
2022-09-14T08:53:05.588Z,23.15
2022-09-14T08:54:05.646Z,23.18
2022-09-14T08:55:05.595Z,23.18
2022-09-14T08:56:05.608Z,23.21
2022-09-14T08:57:05.616Z,23.21
2022-09-14T08:58:05.648Z,23.25
2022-09-14T08:59:05.628Z,23.23
2022-09-14T09:00:05.713Z,23.26
2022-09-14T09:01:05.723Z,23.31
2022-09-14T09:02:05.665Z,23.34
2022-09-14T09:03:05.699Z,23.34
2022-09-14T09:04:05.785Z,23.38
2022-09-14T09:05:05.729Z,23.39
2022-09-14T09:06:05.755Z,23.41
2022-09-14T09:07:05.764Z,23.41
2022-09-14T09:08:05.780Z,23.42
2022-09-14T09:09:05.760Z,23.41
2022-09-14T09:10:05.784Z,23.38
2022-09-14T09:11:05.799Z,23.39
2022-09-14T09:12:05.827Z,23.39
2022-09-14T09:13:06.075Z,23.39
2022-09-14T09:14:06.009Z,23.41
2022-09-14T09:15:05.861Z,23.41
2022-09-14T09:16:06.012Z,23.42
2022-09-14T09:17:05.860Z,23.38
2022-09-14T09:18:05.884Z,23.38
2022-09-14T09:19:05.885Z,23.38
2022-09-14T09:20:05.856Z,23.39
2022-09-14T09:21:05.923Z,23.39
2022-09-14T09:22:05.912Z,23.38
2022-09-14T09:23:05.912Z,23.39
2022-09-14T09:24:05.936Z,23.41
2022-09-14T09:25:05.962Z,23.39
2022-09-14T09:26:06.024Z,23.42
2022-09-14T09:27:06.008Z,23.42
2022-09-14T09:28:06.044Z,23.42
2022-09-14T09:29:06.003Z,23.41
2022-09-14T09:30:06.021Z,23.42
2022-09-14T09:31:06.143Z,23.42
2022-09-14T09:32:06.179Z,23.44
2022-09-14T09:33:06.095Z,23.41
2022-09-14T09:34:06.072Z,23.42
2022-09-14T09:35:06.139Z,23.42
2022-09-14T09:36:06.115Z,23.41
2022-09-14T09:37:06.137Z,23.44
2022-09-14T09:38:06.152Z,23.42
2022-09-14T09:39:06.230Z,23.44
2022-09-14T09:40:06.192Z,23.44
2022-09-14T09:41:06.883Z,23.47
2022-09-14T09:42:06.265Z,23.49
2022-09-14T09:43:06.183Z,23.52
2022-09-14T09:44:06.195Z,23.53
2022-09-14T09:45:06.236Z,23.54
2022-09-14T09:46:06.219Z,23.56
2022-09-14T09:47:06.320Z,23.57
2022-09-14T09:48:06.248Z,23.60
2022-09-14T09:49:06.275Z,23.60
2022-09-14T09:50:06.292Z,23.62
2022-09-14T09:51:06.315Z,23.63
2022-09-14T09:52:06.303Z,23.63
2022-09-14T09:53:06.958Z,23.64
2022-09-14T09:54:06.361Z,23.62
2022-09-14T09:55:06.363Z,23.62
2022-09-14T09:56:06.377Z,23.60
2022-09-14T09:57:06.412Z,23.60
2022-09-14T09:58:06.529Z,23.60
2022-09-14T09:59:06.436Z,23.56
2022-09-14T10:00:06.473Z,23.53
2022-09-14T10:01:11.523Z,23.52
2022-09-14T10:02:06.568Z,23.56
2022-09-14T10:03:06.545Z,23.52
2022-09-14T10:04:06.555Z,23.53
2022-09-14T10:05:06.526Z,23.56
2022-09-14T10:06:06.558Z,23.56
2022-09-14T10:07:06.583Z,23.57
2022-09-14T10:08:11.204Z,23.59
2022-09-14T10:09:06.610Z,23.56
2022-09-14T10:10:06.614Z,23.59
2022-09-14T10:11:06.650Z,23.57
2022-09-14T10:12:06.666Z,23.60
2022-09-14T10:13:06.690Z,23.59
2022-09-14T10:14:06.681Z,23.59
2022-09-14T10:15:06.680Z,23.59
2022-09-14T10:16:06.776Z,23.59
2022-09-14T10:17:06.663Z,23.60
2022-09-14T10:18:06.664Z,23.63
2022-09-14T10:19:06.687Z,23.63
2022-09-14T10:20:06.697Z,23.67
2022-09-14T10:21:06.748Z,23.72
2022-09-14T10:22:06.764Z,23.77
2022-09-14T10:23:06.785Z,23.79
2022-09-14T10:24:06.830Z,23.79
2022-09-14T10:25:06.814Z,23.78
2022-09-14T10:26:06.833Z,23.77
2022-09-14T10:27:06.851Z,23.77
2022-09-14T10:28:06.901Z,23.81
2022-09-14T10:29:06.875Z,23.81
2022-09-14T10:30:06.897Z,23.81
2022-09-14T10:31:06.968Z,23.82
2022-09-14T10:32:06.889Z,23.81
2022-09-14T10:33:06.896Z,23.81
2022-09-14T10:34:06.926Z,23.81
2022-09-14T10:35:06.919Z,23.82
2022-09-14T10:36:06.910Z,23.78
2022-09-14T10:37:06.926Z,23.75
2022-09-14T10:38:06.955Z,23.78
2022-09-14T10:39:06.960Z,23.81
2022-09-14T10:40:07.003Z,23.81
2022-09-14T10:41:06.981Z,23.81
2022-09-14T10:42:07.009Z,23.79
2022-09-14T10:43:06.988Z,23.81
2022-09-14T10:44:07.035Z,23.81
2022-09-14T10:45:07.021Z,23.74
2022-09-14T10:46:07.204Z,23.75
2022-09-14T10:47:07.092Z,23.77
2022-09-14T10:48:07.053Z,23.78
2022-09-14T10:49:07.071Z,23.79
2022-09-14T10:50:07.106Z,23.79
2022-09-14T10:51:07.117Z,23.77
2022-09-14T10:52:07.191Z,23.78
2022-09-14T10:53:07.135Z,23.72
2022-09-14T10:54:07.259Z,23.71
2022-09-14T10:55:07.167Z,23.67
2022-09-14T10:56:07.234Z,23.63
2022-09-14T10:57:07.248Z,23.68
2022-09-14T10:58:07.186Z,23.71
2022-09-14T10:59:07.198Z,23.75
2022-09-14T11:00:07.285Z,23.75
2022-09-14T11:01:07.257Z,23.77
2022-09-14T11:02:07.443Z,23.77
2022-09-14T11:03:07.348Z,23.81
2022-09-14T11:04:07.331Z,23.84
2022-09-14T11:05:07.314Z,23.84
2022-09-14T11:06:07.312Z,23.82
2022-09-14T11:07:07.312Z,23.79
2022-09-14T11:08:07.334Z,23.79
2022-09-14T11:09:07.335Z,23.79
2022-09-14T11:10:07.408Z,23.78
2022-09-14T11:11:11.342Z,23.77
2022-09-14T11:12:07.464Z,23.82
2022-09-14T11:13:07.413Z,23.82
2022-09-14T11:14:07.420Z,23.78
2022-09-14T11:15:07.469Z,23.77
2022-09-14T11:16:07.508Z,23.84
2022-09-14T11:17:07.447Z,23.84
2022-09-14T11:18:07.502Z,23.75
2022-09-14T11:19:07.504Z,23.77
2022-09-14T11:20:07.507Z,23.75
2022-09-14T11:21:07.534Z,23.67
2022-09-14T11:22:07.550Z,23.64
2022-09-14T11:23:07.555Z,23.59
2022-09-14T11:24:07.563Z,23.49
2022-09-14T11:25:07.586Z,23.53
2022-09-14T11:26:07.748Z,23.59
2022-09-14T11:27:07.593Z,23.56
2022-09-14T11:28:07.608Z,23.52
2022-09-14T11:29:07.610Z,23.49
2022-09-14T11:30:07.639Z,23.49
2022-09-14T11:31:07.733Z,23.42
2022-09-14T11:32:20.929Z,23.45
2022-09-14T11:33:07.665Z,23.45
2022-09-14T11:34:07.743Z,23.52
2022-09-14T11:35:07.729Z,23.59
2022-09-14T11:36:07.709Z,23.63
2022-09-14T11:37:07.732Z,23.69
2022-09-14T11:38:07.783Z,23.67
2022-09-14T11:39:07.809Z,23.64
2022-09-14T11:40:07.851Z,23.74
2022-09-14T11:41:07.850Z,23.71
2022-09-14T11:42:07.807Z,23.69
2022-09-14T11:43:07.835Z,23.71
2022-09-14T11:44:07.867Z,23.74
2022-09-14T11:45:07.898Z,23.78
2022-09-14T11:46:08.004Z,23.72
2022-09-14T11:47:07.868Z,23.75
2022-09-14T11:48:31.953Z,23.74
2022-09-14T11:49:07.951Z,23.75
2022-09-14T11:50:08.072Z,23.79
2022-09-14T11:51:07.944Z,23.84
2022-09-14T11:52:07.952Z,23.89
2022-09-14T11:53:07.925Z,23.89
2022-09-14T11:54:07.934Z,23.92
2022-09-14T11:55:07.934Z,23.94
2022-09-14T11:56:07.966Z,23.92
2022-09-14T11:57:07.973Z,23.79
2022-09-14T11:58:07.985Z,23.69
2022-09-14T11:59:07.994Z,23.63
2022-09-14T12:00:08.122Z,23.62
2022-09-14T12:01:08.028Z,23.60
2022-09-14T12:02:08.077Z,23.63
2022-09-14T12:03:08.203Z,23.57
2022-09-14T12:04:08.189Z,23.56
2022-09-14T12:05:08.037Z,23.59
2022-09-14T12:06:09.249Z,23.62
2022-09-14T12:07:08.070Z,23.69
2022-09-14T12:08:08.093Z,23.77
2022-09-14T12:09:08.089Z,23.81
2022-09-14T12:10:08.110Z,23.86
2022-09-14T12:11:08.141Z,23.89
2022-09-14T12:12:08.178Z,23.86
2022-09-14T12:13:08.152Z,23.86
2022-09-14T12:14:08.169Z,23.96
2022-09-14T12:15:08.159Z,23.96
2022-09-14T12:16:08.198Z,23.94
2022-09-14T12:17:22.825Z,23.92
2022-09-14T12:18:08.221Z,23.96
2022-09-14T12:19:08.239Z,23.99
2022-09-14T12:20:08.250Z,24.00
2022-09-14T12:21:08.241Z,24.05
2022-09-14T12:22:08.386Z,24.06
2022-09-14T12:23:08.296Z,24.08
2022-09-14T12:24:08.302Z,24.09
2022-09-14T12:25:08.330Z,24.09
2022-09-14T12:26:08.356Z,24.16
2022-09-14T12:27:08.346Z,24.23
2022-09-14T12:28:08.368Z,24.24
2022-09-14T12:29:08.404Z,24.18
2022-09-14T12:30:08.422Z,24.14
2022-09-14T12:31:08.470Z,24.14
2022-09-14T12:32:08.434Z,24.12
2022-09-14T12:33:08.442Z,24.11
2022-09-14T12:34:08.498Z,24.09
2022-09-14T12:35:08.475Z,24.11
2022-09-14T12:36:08.473Z,24.09
2022-09-14T12:37:12.067Z,24.09
2022-09-14T12:38:08.504Z,24.09
2022-09-14T12:39:08.503Z,24.11
2022-09-14T12:40:08.589Z,24.11
2022-09-14T12:41:08.550Z,24.11
2022-09-14T12:42:08.569Z,24.14
2022-09-14T12:43:08.607Z,24.11
2022-09-14T12:44:08.625Z,24.12
2022-09-14T12:45:08.678Z,24.09
2022-09-14T12:46:08.745Z,24.09
2022-09-14T12:47:08.649Z,24.08
2022-09-14T12:48:08.682Z,24.09
2022-09-14T12:49:08.687Z,24.11
2022-09-14T12:50:08.713Z,24.09
2022-09-14T12:51:08.732Z,24.09
2022-09-14T12:52:08.742Z,24.11
2022-09-14T12:53:08.767Z,24.11
2022-09-14T12:54:08.815Z,24.11